createdAt,value
2022-10-06T05:06:13.089Z,4.60
2022-10-06T05:09:16.695Z,5.00
2022-10-06T05:11:54.621Z,6.70
2022-10-06T05:17:49.578Z,5.20
2022-10-06T05:25:23.380Z,5.00
2022-10-06T05:28:29.435Z,5.80
2022-10-06T05:35:32.585Z,5.20
2022-10-06T05:37:59.615Z,5.00
2022-10-06T05:40:43.022Z,4.70
2022-10-06T05:43:12.552Z,4.50
2022-10-06T05:49:33.354Z,4.50
2022-10-06T05:52:08.284Z,4.40
2022-10-06T05:54:57.920Z,4.70
2022-10-06T05:57:54.684Z,4.00
2022-10-06T06:00:22.514Z,4.50
2022-10-06T06:02:58.563Z,4.40
2022-10-06T06:05:36.643Z,4.20
2022-10-06T06:11:37.733Z,4.40
2022-10-06T06:14:50.943Z,4.10
2022-10-06T06:18:19.560Z,4.10
2022-10-06T06:21:00.112Z,4.70
2022-10-06T06:23:46.317Z,4.50
2022-10-06T06:26:47.912Z,4.30
2022-10-06T06:29:17.718Z,4.30
2022-10-06T06:31:48.085Z,3.70
2022-10-06T06:34:43.743Z,4.70
2022-10-06T06:38:00.100Z,5.00
2022-10-06T06:40:58.551Z,5.20
2022-10-06T06:44:44.261Z,4.90
2022-10-06T06:47:47.551Z,3.80
2022-10-06T06:50:32.808Z,4.40
2022-10-06T06:53:01.959Z,3.70
2022-10-06T07:00:36.395Z,4.10
2022-10-06T07:03:56.018Z,3.80
2022-10-06T07:11:16.066Z,4.40
2022-10-06T07:22:36.718Z,3.60
2022-10-06T07:35:08.178Z,3.30
2022-10-06T07:38:28.729Z,3.50
2022-10-06T07:41:58.896Z,3.70
2022-10-06T07:44:32.409Z,3.20
2022-10-06T07:47:02.192Z,3.80
2022-10-06T07:49:51.641Z,2.90
2022-10-06T07:52:18.999Z,3.40
2022-10-06T07:55:05.898Z,3.00
2022-10-06T07:58:23.806Z,3.20
2022-10-06T08:01:21.587Z,3.50
2022-10-06T08:04:18.006Z,3.40
2022-10-06T08:18:02.089Z,3.40
2022-10-06T08:30:29.538Z,3.50
2022-10-06T08:50:57.650Z,2.90
2022-10-06T08:51:55.670Z,3.10
2022-10-06T08:53:58.434Z,2.80
2022-10-06T08:56:51.454Z,23.30
2022-10-06T09:00:06.653Z,5.20
2022-10-06T09:04:24.755Z,15.70
2022-10-06T09:07:29.933Z,16.00
2022-10-06T09:10:54.633Z,10.20
2022-10-06T09:13:40.745Z,7.70
2022-10-06T09:17:34.882Z,3.60
2022-10-06T09:24:46.945Z,3.40
2022-10-06T09:27:33.311Z,2.80
2022-10-06T09:30:05.697Z,2.50
2022-10-06T09:33:06.289Z,2.70
2022-10-06T09:36:18.743Z,3.00
2022-10-06T09:50:26.993Z,2.40
2022-10-06T10:06:33.866Z,2.30
2022-10-06T10:19:06.131Z,2.50
2022-10-06T10:22:44.073Z,4.30
2022-10-06T10:25:34.508Z,4.10
2022-10-06T10:35:08.851Z,4.90
2022-10-06T10:37:27.050Z,7.80
2022-10-06T10:49:36.980Z,2.40
2022-10-06T10:57:01.018Z,2.20
2022-10-06T11:01:24.851Z,2.20
2022-10-06T11:05:17.331Z,11.50
2022-10-06T11:11:02.675Z,2.40
2022-10-06T11:14:15.024Z,3.30
2022-10-06T11:17:48.853Z,4.30
2022-10-06T11:27:43.576Z,2.50
2022-10-06T11:31:16.556Z,2.60
2022-10-06T11:33:17.125Z,6.80
2022-10-06T11:35:55.352Z,5.10
2022-10-06T11:48:19.193Z,3.80
2022-10-06T11:51:24.619Z,5.70
2022-10-06T11:54:39.622Z,2.30
2022-10-06T12:02:28.889Z,3.10
2022-10-06T12:12:45.897Z,2.10
2022-10-06T12:13:51.318Z,2.20
2022-10-06T12:20:40.757Z,2.30
2022-10-06T12:23:35.822Z,2.70
2022-10-06T12:30:50.178Z,3.90
2022-10-06T12:33:42.617Z,2.50
2022-10-06T12:36:21.290Z,2.20
2022-10-06T12:39:05.756Z,2.40
2022-10-06T12:42:23.347Z,2.50
2022-10-06T12:44:51.189Z,2.20
2022-10-06T12:51:42.070Z,2.20
2022-10-06T12:54:35.072Z,2.60
2022-10-06T12:57:18.097Z,2.10
2022-10-06T12:59:59.133Z,2.20
2022-10-06T13:02:34.487Z,1.90
2022-10-06T13:05:10.895Z,2.00
2022-10-06T13:08:42.461Z,2.20
2022-10-06T13:11:15.019Z,1.80
2022-10-06T13:15:18.822Z,2.20
2022-10-06T13:18:13.966Z,2.10
2022-10-06T13:20:57.060Z,5.70
2022-10-06T17:52:41.626Z,13.20
2022-10-06T17:52:43.103Z,14.80
2022-10-06T20:16:14.438Z,26.80
2022-10-06T20:18:48.614Z,22.10
2022-10-06T20:22:39.021Z,19.00
2022-10-06T20:26:20.396Z,17.60
2022-10-06T20:32:25.283Z,19.50
2022-10-06T20:33:13.760Z,16.30
2022-10-06T20:35:46.661Z,17.20
2022-10-06T20:43:00.242Z,18.60
2022-10-06T20:45:26.979Z,18.30
2022-10-06T20:47:54.162Z,17.90
2022-10-06T20:48:50.020Z,17.50
2022-10-06T20:50:23.383Z,19.10
2022-10-06T20:53:07.126Z,20.50
2022-10-06T20:56:13.413Z,20.30
2022-10-06T20:58:54.551Z,20.40
2022-10-06T21:05:23.467Z,19.40
2022-10-06T21:10:22.479Z,17.00
2022-10-06T21:12:51.377Z,16.10
2022-10-06T21:16:14.664Z,16.70
2022-10-06T21:19:11.702Z,18.60
2022-10-06T21:21:51.482Z,17.10
2022-10-06T21:24:40.065Z,15.90
2022-10-06T21:27:10.941Z,16.50
2022-10-06T21:29:42.118Z,17.30
2022-10-06T21:36:43.447Z,15.50
2022-10-06T21:39:13.912Z,17.00
2022-10-06T21:41:46.606Z,17.10
2022-10-06T21:44:16.385Z,18.40
2022-10-06T21:47:49.847Z,20.00
2022-10-06T21:51:03.221Z,19.70
2022-10-06T21:58:28.474Z,20.70
2022-10-06T22:05:30.339Z,20.60
2022-10-06T22:12:32.310Z,19.50
2022-10-06T22:15:51.135Z,20.30
2022-10-06T23:02:23.630Z,17.50
